X  Lukk Metar værinformasjon om luftfart     LGRX Patras Araxos Agamemnon Airport
Temperatur
81°F Temperatur
68°F Duggpunkt
66% Luftfuktighet



Vind
5 MPT
8 KM/T
2 M/S
4 KNP



260°
V
Nåværende forhold

Klart Klart
Trykk 1011.85 (hPa) - 29.88 (inHg)
Sikt 6 (mil) - 9.7 (km)
Flyplass
Flyplass-kode LGRX

Plassering: Patras Araxos Agamemnon Airport
Avstand: 108 (mi)

Metar:
LGRX 140620Z 26004KT CAVOK 27/20 Q1012

Tid: 14-06-2024 09:20 EEST